Time;durP1;ratioP1;P1;durP2;ratioP2;P2;SDS_P1;SDS_P2;PMS_P1;PMS_P2;Temp;Humidity;BMP_temperature;BMP_pressure;BME280_temperature;BME280_humidity;BME280_pressure;Samples;Min_cycle;Max_cycle;Signal;HPM_P1;HPM_P2
2021/10/28 03:16:32;;;;;;;;;;;;;;;6.97;100.00;100012.69;5360044;22;19933;-80
2021/10/28 03:27:04;;;;;;;;;;;;;;;6.99;100.00;100013.53;5000073;28;19921;-82
2021/10/28 03:29:29;;;;;;;;;;;;;;;6.98;100.00;100015.31;5029753;28;19925;-82
2021/10/28 03:31:55;;;;;;;;;;;;;;;7.01;100.00;100015.22;5024022;28;19924;-82
2021/10/28 03:34:21;;;;;;;;;;;;;;;7.04;100.00;100014.28;5023562;28;19921;-79
2021/10/28 03:37:12;;;;;;;;;;;;;;;7.03;100.00;100020.47;5024116;28;19921;-80
2021/10/28 03:39:50;;;;;;;;;;;;;;;7.05;100.00;100018.63;5024167;28;19924;-80
2021/10/28 04:01:15;;;;;;;;;;;;;;;4.14;100.00;100025.75;5022666;28;19960;-81
2021/10/28 04:06:30;;;;;;;;;;;;;;;4.06;100.00;100025.00;5023491;28;19921;-80
2021/10/28 04:17:38;;;;;;;;;;;;;;;3.55;100.00;100022.94;4960127;28;1824372;-80
2021/10/28 04:30:16;;;;;;;;;;;;;;;3.21;100.00;100019.81;5007337;28;19971;-80
2021/10/28 04:32:41;;;;;;;;;;;;;;;3.07;100.00;100023.38;5024307;28;19917;-82
2021/10/28 04:35:07;;;;;;;;;;;;;;;3.06;100.00;100020.78;5023950;28;20009;-80
2021/10/28 04:37:32;;;;;;;;;;;;;;;2.97;100.00;100015.63;5024499;28;20253;-80
2021/10/28 04:39:58;;;;;;;;;;;;;;;2.91;100.00;100020.03;5024479;28;19991;-79
2021/10/28 04:42:23;;;;;;;;;;;;;;;2.82;100.00;100021.84;5024071;28;19917;-84
2021/10/28 04:44:49;;;;;;;;;;;;;;;2.83;100.00;100026.22;5023084;28;19921;-80
2021/10/28 04:47:14;;;;;;;;;;;;;;;2.74;100.00;100024.53;5023864;28;19914;-80
2021/10/28 04:49:39;;;;;;;;;;;;;;;2.70;100.00;100022.81;5024143;28;19918;-80
2021/10/28 04:52:05;;;;;;;;;;;;;;;2.59;100.00;100022.88;5024244;28;20004;-80
2021/10/28 08:19:18;;;;;;;;;;;;;;;3.92;94.26;99995.44;4985038;28;19977;-81
2021/10/28 08:21:50;;;;;;;;;;;;;;;3.95;94.00;100005.91;4985681;28;19921;-82
2021/10/28 08:29:35;;;;;;;;;;;;;;;4.03;92.36;99995.31;4984563;28;19929;-82
2021/10/28 08:32:02;;;;;;;;;;;;;;;4.04;92.03;99997.94;4985279;28;19969;-83
2021/10/28 08:34:33;;;;;;;;;;;;;;;4.09;91.76;99990.00;4985327;28;20016;-82
2021/10/28 08:39:34;;;;;;;;;;;;;;;4.11;91.15;99983.84;4984789;28;19929;-85
2021/10/28 08:42:02;;;;;;;;;;;;;;;4.13;90.70;99984.69;4984800;28;19919;-82
2021/10/28 08:44:30;;;;;;;;;;;;;;;4.14;90.38;99983.78;4983652;28;19925;-82
2021/10/28 08:46:56;;;;;;;;;;;;;;;4.19;90.17;99979.34;4984183;28;19922;-82
2021/10/28 08:49:28;;;;;;;;;;;;;;;4.20;89.91;99985.47;4985006;28;19921;-81
2021/10/28 08:52:08;;;;;;;;;;;;;;;4.26;89.74;99980.16;4983892;28;19918;-84
2021/10/28 09:25:19;;;;;;;;;;;;;;;4.57;88.17;99949.97;4974409;28;19968;-82
2021/10/28 09:27:49;;;;;;;;;;;;;;;4.56;87.83;99946.47;4973129;28;20378;-84
2021/10/28 09:30:31;;;;;;;;;;;;;;;4.62;87.73;99949.00;4974432;28;19958;-82
2021/10/28 09:33:07;;;;;;;;;;;;;;;4.64;87.72;99941.09;4973659;28;20349;-84
2021/10/28 09:44:31;;;;;;;;;;;;;;;4.75;87.88;99933.91;4973086;28;20014;-82
2021/10/28 09:47:05;;;;;;;;;;;;;;;4.77;87.95;99932.16;4956595;28;20425;-82
2021/10/28 09:49:57;;;;;;;;;;;;;;;4.82;87.98;99938.19;4973740;28;19960;-83
2021/10/28 09:52:32;;;;;;;;;;;;;;;4.83;88.07;99932.00;4973916;28;20361;-82
2021/10/28 09:57:47;;;;;;;;;;;;;;;4.88;88.23;99934.56;4974125;28;19918;-83
2021/10/28 09:58:02;;;;;;;;;;;;;;;4.89;88.36;99936.31;4972450;28;19941;-82
2021/10/28 10:00:35;;;;;;;;;;;;;;;4.88;87.97;99929.31;4973949;28;19933;-83
2021/10/28 10:03:08;;;;;;;;;;;;;;;4.90;88.11;99944.16;4973211;28;20477;-83
2021/10/28 10:05:33;;;;;;;;;;;;;;;4.94;88.18;99938.84;4955739;28;19918;-84
2021/10/28 10:07:59;;;;;;;;;;;;;;;4.93;88.12;99934.50;4972159;28;19914;-84
2021/10/28 10:10:27;;;;;;;;;;;;;;;4.98;88.21;99935.28;4973786;28;19929;-82
2021/10/28 10:12:53;;;;;;;;;;;;;;;5.02;88.27;99937.81;4972391;28;19918;-82
2021/10/28 10:15:18;;;;;;;;;;;;;;;5.02;88.30;99936.97;4956395;28;19925;-82
2021/10/28 10:17:50;;;;;;;;;;;;;;;5.03;88.21;99930.81;4973247;28;19914;-82
2021/10/28 10:20:18;;;;;;;;;;;;;;;5.07;88.63;99930.75;4973392;28;19954;-83
2021/10/28 10:22:52;;;;;;;;;;;;;;;5.08;88.70;99919.31;4973649;28;20288;-84
2021/10/28 10:25:43;;;;;;;;;;;;;;;5.10;88.77;99929.81;4973532;28;20369;-82
2021/10/28 10:29:13;;;;;;;;;;;;;;;5.13;88.86;99926.28;4972074;28;19919;-83
2021/10/28 11:05:41;;;;;;;;;;;;;;;5.41;90.80;99895.09;4972832;28;19929;-82
2021/10/28 12:15:12;;;;;;;;;;;;;;;5.90;93.89;99822.16;4974732;28;20288;-83
2021/10/28 12:44:51;;;;;;;;;;;;;;;6.08;96.07;99747.22;4974085;28;19945;-82
2021/10/28 12:49:58;;;;;;;;;;;;;;;6.13;96.35;99740.97;4975413;28;19929;-82
2021/10/28 12:55:24;;;;;;;;;;;;;;;6.32;97.42;99736.09;4974837;28;19964;-81
2021/10/28 13:57:26;;;;;;;;;;;;;;;6.72;100.00;99694.66;4994564;28;19935;-82
2021/10/28 14:27:10;;;;;;;;;;;;;;;6.17;100.00;99690.00;4992958;28;19918;-82
2021/10/28 14:58:33;;;;;;;;;;;;;;;3.77;100.00;99689.84;4992831;28;20285;-84
2021/10/28 15:28:38;;;;;;;;;;;;;;;2.47;92.22;99651.53;4989689;28;19984;-84
2021/10/28 15:36:18;;;;;;;;;;;;;;;2.33;91.53;99647.34;4991620;28;19976;-82
2021/10/28 16:24:12;;;;;;;;;;;;;;;2.99;100.00;99610.75;4994372;28;19933;-82
2021/10/28 16:26:37;;;;;;;;;;;;;;;3.02;100.00;99615.94;4995996;28;19926;-83
2021/10/28 16:29:06;;;;;;;;;;;;;;;3.01;100.00;99615.03;4982848;28;20020;-87
2021/10/28 16:31:32;;;;;;;;;;;;;;;3.04;100.00;99615.00;4993223;28;20442;-85
2021/10/28 16:33:57;;;;;;;;;;;;;;;3.08;100.00;99618.47;4983439;28;19929;-86
2021/10/28 16:36:25;;;;;;;;;;;;;;;3.17;100.00;99617.44;4994175;28;20361;-83
2021/10/28 16:38:51;;;;;;;;;;;;;;;3.14;100.00;99615.72;4994883;28;19921;-85
2021/10/28 16:41:17;;;;;;;;;;;;;;;3.11;100.00;99620.16;4984804;28;19918;-86
2021/10/28 16:43:42;;;;;;;;;;;;;;;3.11;100.00;99622.78;4982485;28;19928;-85
2021/10/28 16:46:08;;;;;;;;;;;;;;;3.11;100.00;99621.00;4993841;28;19976;-83
2021/10/28 16:48:33;;;;;;;;;;;;;;;3.15;100.00;99617.47;4993616;28;19922;-82
2021/10/28 16:50:58;;;;;;;;;;;;;;;3.20;100.00;99614.78;4992831;28;19967;-83
2021/10/28 16:53:23;;;;;;;;;;;;;;;3.22;100.00;99618.22;4991161;28;19985;-84
2021/10/28 16:55:49;;;;;;;;;;;;;;;3.23;100.00;99612.13;4994679;28;20025;-86
2021/10/28 16:58:15;;;;;;;;;;;;;;;3.22;100.00;99613.00;4993365;28;20397;-84
2021/10/28 17:00:40;;;;;;;;;;;;;;;3.27;100.00;99614.66;4992804;28;20386;-83
2021/10/28 17:03:05;;;;;;;;;;;;;;;3.26;100.00;99610.31;4992215;28;19929;-82
2021/10/28 17:05:31;;;;;;;;;;;;;;;3.27;100.00;99600.69;4973443;28;19922;-83
2021/10/28 17:07:56;;;;;;;;;;;;;;;3.28;100.00;99612.91;4988961;28;19930;-83
2021/10/28 17:10:21;;;;;;;;;;;;;;;3.33;100.00;99600.59;4977158;28;20007;-83
2021/10/28 17:12:47;;;;;;;;;;;;;;;3.32;100.00;99598.88;4993282;28;19926;-85
2021/10/28 17:15:12;;;;;;;;;;;;;;;3.35;100.00;99595.31;4976245;28;19926;-86
2021/10/28 17:17:37;;;;;;;;;;;;;;;3.34;100.00;99591.00;4993432;28;19934;-83
2021/10/28 17:20:07;;;;;;;;;;;;;;;3.40;100.00;99590.91;4993758;28;20047;-83
2021/10/28 17:22:33;;;;;;;;;;;;;;;3.39;100.00;99584.78;4993486;28;20344;-84
2021/10/28 17:24:59;;;;;;;;;;;;;;;3.39;100.00;99584.78;4993397;28;19928;-84
2021/10/28 17:27:25;;;;;;;;;;;;;;;3.42;100.00;99597.81;4993016;28;20365;-86
2021/10/28 17:29:50;;;;;;;;;;;;;;;3.48;100.00;99591.63;4993745;28;19960;-84
2021/10/28 17:32:15;;;;;;;;;;;;;;;3.47;100.00;99586.41;4979019;28;20396;-85
2021/10/28 17:34:41;;;;;;;;;;;;;;;3.47;100.00;99584.66;4994142;28;19917;-84
2021/10/28 17:37:06;;;;;;;;;;;;;;;3.49;100.00;99589.88;4976718;28;19925;-85
2021/10/28 17:39:32;;;;;;;;;;;;;;;3.50;100.00;99595.09;4994697;28;20392;-84
2021/10/28 17:41:58;;;;;;;;;;;;;;;3.51;100.00;99591.59;4992747;28;19941;-83
2021/10/28 17:44:33;;;;;;;;;;;;;;;3.53;100.00;99588.94;4992362;28;20013;-83
2021/10/28 17:46:58;;;;;;;;;;;;;;;3.57;100.00;99594.06;4992903;28;19957;-84
2021/10/28 17:49:24;;;;;;;;;;;;;;;3.57;100.00;99586.22;4992849;28;19972;-85
2021/10/28 17:51:49;;;;;;;;;;;;;;;3.58;100.00;99589.72;4993612;28;19926;-83
2021/10/28 17:54:14;;;;;;;;;;;;;;;3.62;100.00;99589.63;4992659;28;19933;-83
2021/10/28 17:56:40;;;;;;;;;;;;;;;3.64;100.00;99581.75;4992554;28;20316;-83
2021/10/28 17:59:06;;;;;;;;;;;;;;;3.67;100.00;99586.94;4974843;28;19926;-86
2021/10/28 18:01:35;;;;;;;;;;;;;;;3.71;100.00;99579.88;4992829;28;20385;-83
2021/10/28 18:04:01;;;;;;;;;;;;;;;3.68;100.00;99580.78;4976109;28;19972;-84
2021/10/28 18:06:28;;;;;;;;;;;;;;;3.72;100.00;99577.22;4992239;28;19969;-86
2021/10/28 18:08:53;;;;;;;;;;;;;;;3.73;100.00;99578.94;4975959;28;19925;-83
2021/10/28 18:11:19;;;;;;;;;;;;;;;3.76;100.00;99576.25;4992497;28;20028;-86
2021/10/28 18:13:44;;;;;;;;;;;;;;;3.80;100.00;99585.81;4992512;28;19929;-85
2021/10/28 18:16:09;;;;;;;;;;;;;;;3.82;100.00;99578.78;4991421;28;19929;-83
2021/10/28 18:18:38;;;;;;;;;;;;;;;3.85;100.00;99582.25;4974073;28;19933;-84
2021/10/28 18:21:03;;;;;;;;;;;;;;;3.90;100.00;99585.66;4993193;28;20020;-85
2021/10/28 18:23:30;;;;;;;;;;;;;;;3.92;100.00;99568.13;4992513;28;20079;-83
2021/10/28 18:25:55;;;;;;;;;;;;;;;3.93;100.00;99575.09;4993638;28;20357;-84
2021/10/28 18:28:21;;;;;;;;;;;;;;;3.92;99.85;99581.22;4990596;28;19953;-85
2021/10/28 18:30:47;;;;;;;;;;;;;;;3.96;99.22;99596.03;4989396;28;19922;-85
2021/10/28 18:33:12;;;;;;;;;;;;;;;3.94;98.76;99592.53;4994524;28;20045;-85
2021/10/28 18:35:39;;;;;;;;;;;;;;;4.00;98.02;99588.06;4991850;28;20396;-83
2021/10/28 18:38:08;;;;;;;;;;;;;;;4.04;97.46;99588.88;4974284;28;19924;-83
2021/10/28 18:40:34;;;;;;;;;;;;;;;4.08;96.69;99592.28;4993054;28;19921;-84
2021/10/28 18:42:59;;;;;;;;;;;;;;;4.07;96.04;99587.94;4974097;28;19922;-84
2021/10/28 18:45:25;;;;;;;;;;;;;;;4.10;95.35;99585.25;4973817;28;19921;-86
2021/10/28 18:47:51;;;;;;;;;;;;;;;4.11;94.78;99585.22;4975647;28;19961;-84
2021/10/28 18:50:17;;;;;;;;;;;;;;;4.14;94.23;99590.41;4975529;28;20452;-83
2021/10/28 18:52:42;;;;;;;;;;;;;;;4.14;93.59;99595.66;4991617;28;19932;-85
2021/10/28 18:55:08;;;;;;;;;;;;;;;4.13;92.90;99593.94;4990804;28;19924;-86
2021/10/28 18:57:33;;;;;;;;;;;;;;;4.19;92.32;99592.94;4992087;28;20329;-83
2021/10/28 18:59:59;;;;;;;;;;;;;;;4.18;91.61;99589.47;4984881;28;19968;-83
2021/10/28 19:02:27;;;;;;;;;;;;;;;4.21;91.25;99579.78;4982756;28;20405;-83
2021/10/28 19:04:52;;;;;;;;;;;;;;;4.25;90.92;99577.09;4981183;28;20000;-87
2021/10/28 19:07:19;;;;;;;;;;;;;;;4.25;90.61;99571.00;4973040;28;19996;-86
2021/10/28 19:09:44;;;;;;;;;;;;;;;4.27;90.22;99574.44;4980870;28;20376;-83
2021/10/28 19:12:09;;;;;;;;;;;;;;;4.27;90.12;99566.56;4967859;28;19929;-86
2021/10/28 19:14:38;;;;;;;;;;;;;;;4.29;89.65;99570.00;4970246;28;19945;-85
2021/10/28 19:17:03;;;;;;;;;;;;;;;4.30;89.39;99567.34;4967763;28;20047;-86
2021/10/28 19:19:28;;;;;;;;;;;;;;;4.36;89.23;99564.59;4968391;28;20354;-84
2021/10/28 19:21:54;;;;;;;;;;;;;;;4.38;89.01;99559.31;4970790;28;20045;-87
2021/10/28 19:24:19;;;;;;;;;;;;;;;4.39;88.79;99563.69;4977067;28;19928;-84
2021/10/28 19:26:45;;;;;;;;;;;;;;;4.38;88.42;99556.72;4971706;28;19922;-83
2021/10/28 19:29:10;;;;;;;;;;;;;;;4.39;87.97;99553.19;4967142;28;19922;-83
2021/10/28 19:31:53;;;;;;;;;;;;;;;4.43;88.22;99556.63;4971365;28;19923;-83
2021/10/28 19:34:18;;;;;;;;;;;;;;;4.50;87.90;99548.59;4982437;28;20262;-84
2021/10/28 19:37:03;;;;;;;;;;;;;;;4.50;87.78;99548.59;4968236;28;19930;-82
2021/10/28 19:47:17;;;;;;;;;;;;;;;4.60;87.00;99546.63;4982577;28;19949;-87
2021/10/28 19:49:44;;;;;;;;;;;;;;;4.61;86.75;99544.84;4974112;28;19941;-86
2021/10/28 19:52:12;;;;;;;;;;;;;;;4.62;86.65;99538.72;4976155;28;19965;-84
2021/10/28 19:54:38;;;;;;;;;;;;;;;4.64;86.55;99542.16;4970307;28;19925;-83
2021/10/28 19:57:05;;;;;;;;;;;;;;;4.64;86.29;99537.78;4976553;28;20321;-84
2021/10/28 19:59:35;;;;;;;;;;;;;;;4.68;85.98;99535.94;4966795;28;20068;-83
2021/10/28 20:02:06;;;;;;;;;;;;;;;4.66;85.70;99529.84;4961881;28;20338;-83
2021/10/28 20:04:50;;;;;;;;;;;;;;;4.68;85.86;99533.31;4965223;28;19926;-84
2021/10/28 20:07:27;;;;;;;;;;;;;;;4.68;85.90;99530.69;4964599;28;19933;-82
2021/10/28 20:21:03;;;;;;;;;;;;;;;4.73;84.84;99536.69;4975116;28;19930;-83
2021/10/28 20:23:28;;;;;;;;;;;;;;;4.75;84.67;99529.66;4965822;28;20285;-82
2021/10/28 20:25:53;;;;;;;;;;;;;;;4.76;84.50;99526.13;4964801;28;20290;-83
2021/10/28 20:28:19;;;;;;;;;;;;;;;4.78;84.67;99516.44;4964106;28;19922;-83
2021/10/28 20:30:55;;;;;;;;;;;;;;;4.79;84.44;99520.81;4971693;28;19922;-82
2021/10/28 20:33:22;;;;;;;;;;;;;;;4.82;84.36;99519.84;4965019;28;19932;-85
2021/10/28 20:38:19;;;;;;;;;;;;;;;4.89;84.49;99513.56;4975025;28;19929;-82
2021/10/28 20:40:45;;;;;;;;;;;;;;;4.88;84.29;99504.84;4974866;28;19922;-82
2021/10/28 20:43:10;;;;;;;;;;;;;;;4.90;84.16;99508.28;4958054;28;21692;-84
2021/10/28 20:45:37;;;;;;;;;;;;;;;4.90;84.10;99505.66;4961459;28;19929;-83
2021/10/28 20:48:02;;;;;;;;;;;;;;;4.93;84.26;99511.72;4964762;28;20571;-85
2021/10/28 20:50:27;;;;;;;;;;;;;;;4.94;84.21;99498.56;4959020;28;19930;-83
2021/10/28 20:52:53;;;;;;;;;;;;;;;4.97;84.21;99503.75;4964112;28;19960;-83
2021/10/28 20:55:19;;;;;;;;;;;;;;;4.98;84.28;99507.22;4963557;28;19944;-84
2021/10/28 20:57:45;;;;;;;;;;;;;;;4.97;84.36;99505.53;4978467;28;19933;-85
2021/10/28 21:00:12;;;;;;;;;;;;;;;5.01;84.26;99504.53;4962555;28;19930;-82
2021/10/28 21:02:38;;;;;;;;;;;;;;;5.03;84.18;99515.88;4979611;28;20381;-82
2021/10/28 21:05:10;;;;;;;;;;;;;;;5.03;84.06;99513.25;4963138;28;19922;-86
2021/10/28 21:07:35;;;;;;;;;;;;;;;5.05;84.34;99512.28;4962912;28;19918;-83
2021/10/28 21:10:01;;;;;;;;;;;;;;;5.08;84.33;99508.75;4974383;28;19985;-85
2021/10/28 21:12:26;;;;;;;;;;;;;;;5.10;83.98;99506.94;4964461;28;19921;-85
2021/10/28 21:14:51;;;;;;;;;;;;;;;5.08;83.97;99501.72;4964297;28;19918;-82
2021/10/28 21:17:16;;;;;;;;;;;;;;;5.09;83.94;99506.06;4959104;28;20277;-83
2021/10/28 21:19:42;;;;;;;;;;;;;;;5.13;83.94;99501.59;4959835;28;20004;-82
2021/10/28 21:22:07;;;;;;;;;;;;;;;5.12;83.84;99502.50;4973728;28;20258;-83
2021/10/28 21:24:35;;;;;;;;;;;;;;;5.14;83.59;99502.47;4963115;28;20007;-84
2021/10/28 21:27:01;;;;;;;;;;;;;;;5.16;83.64;99504.16;4959416;28;20289;-82
2021/10/28 21:29:26;;;;;;;;;;;;;;;5.14;83.68;99500.72;4961664;28;19929;-86
2021/10/28 21:31:51;;;;;;;;;;;;;;;5.16;83.54;99498.91;4964404;28;19950;-82
2021/10/28 21:34:17;;;;;;;;;;;;;;;5.19;83.69;99508.47;4970669;28;20032;-82
2021/10/28 21:36:42;;;;;;;;;;;;;;;5.21;84.04;99507.53;4969928;28;19926;-82
2021/10/28 21:39:07;;;;;;;;;;;;;;;5.23;84.46;99497.84;4964861;28;20372;-86
2021/10/28 21:41:33;;;;;;;;;;;;;;;5.21;84.67;99491.75;4964905;28;20374;-82
2021/10/28 21:44:00;;;;;;;;;;;;;;;5.19;84.64;99493.56;4960782;28;19926;-85
2021/10/28 21:46:30;;;;;;;;;;;;;;;5.25;84.44;99497.81;4972522;28;19922;-84
2021/10/28 21:48:55;;;;;;;;;;;;;;;5.25;84.42;99495.19;4964234;28;20297;-82
2021/10/28 21:51:23;;;;;;;;;;;;;;;5.26;84.30;99491.66;4972935;28;19932;-85
2021/10/28 21:53:50;;;;;;;;;;;;;;;5.29;84.13;99488.94;4962833;28;19926;-82
2021/10/28 22:01:19;;;;;;;;;;;;;;;5.37;84.01;99486.97;4973130;28;19929;-85
2021/10/28 22:25:29;;;;;;;;;;;;;;;5.48;84.76;99475.31;4973452;28;19933;-84
2021/10/28 22:27:55;;;;;;;;;;;;;;;5.53;85.02;99478.69;4971470;28;19926;-84
2021/10/28 22:30:21;;;;;;;;;;;;;;;5.54;85.11;99477.78;4956880;28;19926;-82
2021/10/28 22:32:47;;;;;;;;;;;;;;;5.55;85.10;99469.00;4972365;28;19926;-82
2021/10/28 22:35:16;;;;;;;;;;;;;;;5.55;85.16;99472.50;4963141;28;20263;-81
2021/10/28 22:37:47;;;;;;;;;;;;;;;5.59;85.30;99470.63;4961887;28;19922;-81
2021/10/28 22:42:38;;;;;;;;;;;;;;;5.63;85.39;99467.88;4971786;28;19944;-83
2021/10/28 22:45:04;;;;;;;;;;;;;;;5.64;85.86;99469.59;4962591;28;19918;-82
2021/10/28 22:47:29;;;;;;;;;;;;;;;5.66;86.32;99472.19;4963247;28;19918;-81
2021/10/28 22:49:55;;;;;;;;;;;;;;;5.67;86.72;99462.53;4956010;28;19918;-82
2021/10/28 22:52:26;;;;;;;;;;;;;;;5.66;86.72;99461.66;4963146;28;19929;-83
2021/10/28 22:54:57;;;;;;;;;;;;;;;5.68;86.49;99459.00;4963073;28;19942;-85
2021/10/28 22:57:29;;;;;;;;;;;;;;;5.68;86.45;99457.25;4962829;28;20017;-82
2021/10/28 22:59:55;;;;;;;;;;;;;;;5.70;86.66;99463.31;4970336;28;20033;-82
2021/10/28 23:13:04;;;;;;;;;;;;;;;5.80;86.88;99442.88;4991374;28;20372;-82
2021/10/28 23:15:48;;;;;;;;;;;;;;;5.82;87.10;99441.94;4992197;28;20012;-82
2021/10/28 23:20:57;;;;;;;;;;;;;;;5.86;87.30;99450.59;4991841;28;19937;-83
2021/10/28 23:23:22;;;;;;;;;;;;;;;5.81;87.39;99445.47;4991886;28;20044;-85
2021/10/28 23:25:47;;;;;;;;;;;;;;;5.89;87.47;99458.41;4994896;28;19926;-82
2021/10/28 23:28:13;;;;;;;;;;;;;;;5.91;87.06;99451.31;4976567;28;19922;-81
2021/10/28 23:30:38;;;;;;;;;;;;;;;5.93;87.18;99446.88;4996175;28;20369;-82
2021/10/28 23:33:04;;;;;;;;;;;;;;;5.97;87.35;99445.06;4977212;28;19945;-84
2021/10/28 23:35:29;;;;;;;;;;;;;;;5.98;87.31;99444.13;4978208;28;20027;-82
2021/10/28 23:37:55;;;;;;;;;;;;;;;5.98;87.32;99437.13;4987926;28;20386;-81
2021/10/28 23:40:21;;;;;;;;;;;;;;;6.03;87.56;99436.13;4992889;28;19956;-82
2021/10/28 23:42:46;;;;;;;;;;;;;;;6.02;87.54;99429.16;4976551;28;20213;-81
2021/10/28 23:45:12;;;;;;;;;;;;;;;6.03;87.67;99439.63;4978602;28;19921;-81
2021/10/28 23:47:37;;;;;;;;;;;;;;;6.05;87.55;99443.06;4978145;28;19925;-81
2021/10/28 23:50:04;;;;;;;;;;;;;;;6.34;88.32;99442.16;4978857;28;20009;-88
2021/10/28 23:52:29;;;;;;;;;;;;;;;6.41;89.67;99421.78;4978389;28;20020;-82
2021/10/28 23:54:54;;;;;;;;;;;;;;;6.25;89.89;99426.66;4979015;28;20024;-82
